createdAt,value
2022-08-11T00:00:41.862Z,0
2022-08-11T00:01:41.335Z,0
2022-08-11T00:02:42.349Z,0
2022-08-11T00:03:50.671Z,0
2022-08-11T00:04:41.652Z,0
2022-08-11T00:05:41.318Z,0
2022-08-11T00:06:41.308Z,0
2022-08-11T00:07:41.543Z,0
2022-08-11T00:08:41.530Z,0
2022-08-11T00:09:46.277Z,0
2022-08-11T00:10:41.527Z,0
2022-08-11T00:11:41.508Z,0
2022-08-11T00:12:41.936Z,0
2022-08-11T00:13:41.503Z,0
2022-08-11T00:14:44.608Z,0
2022-08-11T00:15:40.962Z,0
2022-08-11T00:16:41.723Z,0
2022-08-11T00:17:41.466Z,0
2022-08-11T00:18:41.446Z,0
2022-08-11T00:20:22.203Z,0
2022-08-11T00:20:41.429Z,0
2022-08-11T00:22:11.763Z,0
2022-08-11T00:22:42.127Z,0
2022-08-11T00:23:41.649Z,0
2022-08-11T00:25:04.940Z,0
2022-08-11T00:25:41.391Z,0
2022-08-11T00:26:40.865Z,0
2022-08-11T00:27:41.364Z,0
2022-08-11T00:28:41.101Z,0
2022-08-11T00:29:56.466Z,0
2022-08-11T00:30:41.343Z,0
2022-08-11T00:31:41.078Z,0
2022-08-11T00:32:41.915Z,0
2022-08-11T00:33:51.457Z,0
2022-08-11T00:34:41.045Z,0
2022-08-11T00:36:03.238Z,0
2022-08-11T00:36:41.287Z,0
2022-08-11T00:37:41.278Z,0
2022-08-11T00:38:41.270Z,0
2022-08-11T00:39:41.575Z,0
2022-08-11T00:40:41.610Z,0
2022-08-11T00:41:41.245Z,0
2022-08-11T00:42:41.476Z,0
2022-08-11T00:43:41.235Z,0
2022-08-11T00:44:40.960Z,0
2022-08-11T00:45:41.458Z,0
2022-08-11T00:46:40.939Z,0
2022-08-11T00:47:41.449Z,0
2022-08-11T00:48:41.188Z,0
2022-08-11T00:49:41.430Z,0
2022-08-11T00:50:40.909Z,0
2022-08-11T00:52:12.528Z,0
2022-08-11T00:52:41.693Z,0
2022-08-11T00:53:41.135Z,0
2022-08-11T00:54:41.128Z,0
2022-08-11T00:55:41.130Z,0
2022-08-11T00:56:41.054Z,0
2022-08-11T00:57:45.145Z,0
2022-08-11T00:58:42.168Z,0
2022-08-11T00:59:43.313Z,0
2022-08-11T01:00:41.846Z,0
2022-08-11T01:01:41.062Z,0
2022-08-11T01:02:41.596Z,0
2022-08-11T01:03:42.177Z,0
2022-08-11T01:04:41.031Z,0
2022-08-11T01:05:41.286Z,0
2022-08-11T01:06:42.824Z,0
2022-08-11T01:08:10.220Z,0
2022-08-11T01:08:41.010Z,0
2022-08-11T01:09:41.511Z,0
2022-08-11T01:10:41.496Z,0
2022-08-11T01:11:57.670Z,0
2022-08-11T01:12:41.838Z,0
2022-08-11T01:13:41.469Z,0
2022-08-11T01:14:41.787Z,0
2022-08-11T01:15:41.201Z,0
2022-08-11T01:16:41.186Z,0
2022-08-11T01:17:41.185Z,0
2022-08-11T01:18:41.166Z,0
2022-08-11T01:20:54.169Z,0
2022-08-11T01:22:03.460Z,0
2022-08-11T01:23:03.914Z,0
2022-08-11T01:24:03.904Z,0
2022-08-11T01:25:03.636Z,0
2022-08-11T01:26:05.185Z,0
2022-08-11T01:27:03.871Z,0
2022-08-11T01:28:03.607Z,0
2022-08-11T01:29:03.608Z,0
2022-08-11T01:30:03.854Z,0
2022-08-11T01:31:03.856Z,0
2022-08-11T01:32:04.751Z,0
2022-08-11T01:33:03.566Z,0
2022-08-11T01:34:03.563Z,0
2022-08-11T01:35:03.545Z,0
2022-08-11T01:36:03.282Z,0
2022-08-11T01:37:04.423Z,0
2022-08-11T01:38:03.009Z,0
2022-08-11T01:39:03.509Z,0
2022-08-11T01:40:03.737Z,0
2022-08-11T01:41:03.751Z,0
2022-08-11T01:42:03.485Z,0
2022-08-11T01:43:03.478Z,0
2022-08-11T01:44:03.465Z,0
2022-08-11T01:45:03.716Z,0
2022-08-11T01:46:03.702Z,0
2022-08-11T01:47:04.942Z,0
2022-08-11T01:48:03.432Z,0
2022-08-11T01:50:10.595Z,0
2022-08-11T01:50:21.812Z,0
2022-08-11T01:51:24.192Z,0
2022-08-11T01:52:42.421Z,0
2022-08-11T01:53:21.585Z,0
2022-08-11T01:54:21.509Z,0
2022-08-11T01:55:21.780Z,0
2022-08-11T01:56:21.499Z,0
2022-08-11T01:57:21.752Z,0
2022-08-11T01:58:21.731Z,0
2022-08-11T01:59:21.351Z,0
2022-08-11T02:00:21.460Z,0
2022-08-11T02:01:22.108Z,0
2022-08-11T02:03:00.631Z,0
2022-08-11T02:03:21.435Z,0
2022-08-11T02:04:21.675Z,0
2022-08-11T02:05:21.415Z,0
2022-08-11T02:06:21.663Z,0
2022-08-11T02:07:21.399Z,0
2022-08-11T02:08:35.407Z,0
2022-08-11T02:09:26.747Z,0
2022-08-11T02:10:29.669Z,0
2022-08-11T02:11:24.398Z,0
2022-08-11T02:12:21.357Z,0
2022-08-11T02:13:37.764Z,0
2022-08-11T02:14:21.594Z,0
2022-08-11T02:15:21.584Z,0
2022-08-11T02:16:21.635Z,0
2022-08-11T02:17:21.559Z,0
2022-08-11T02:18:26.124Z,0
2022-08-11T02:19:21.288Z,0
2022-08-11T02:20:21.738Z,0
2022-08-11T02:21:21.276Z,0
2022-08-11T02:22:21.255Z,0
2022-08-11T02:24:12.705Z,0
2022-08-11T02:25:24.641Z,0
2022-08-11T02:26:22.473Z,0
2022-08-11T02:27:21.914Z,0
2022-08-11T02:28:22.417Z,0
2022-08-11T02:29:21.937Z,0
2022-08-11T02:30:21.886Z,0
2022-08-11T02:32:36.012Z,0
2022-08-11T02:32:50.756Z,0
2022-08-11T02:33:48.660Z,0
2022-08-11T02:35:04.408Z,0
2022-08-11T02:35:48.116Z,0
2022-08-11T02:36:48.630Z,0
2022-08-11T02:37:48.104Z,0
2022-08-11T02:38:48.611Z,0
2022-08-11T02:39:52.968Z,0
2022-08-11T02:40:48.342Z,0
2022-08-11T02:41:48.331Z,0
2022-08-11T02:42:49.998Z,0
2022-08-11T02:43:56.065Z,0
2022-08-11T02:44:48.557Z,0
2022-08-11T02:45:48.289Z,0
2022-08-11T02:46:48.531Z,0
2022-08-11T02:47:48.263Z,0
2022-08-11T02:48:48.521Z,0
2022-08-11T02:49:47.988Z,0
2022-08-11T02:50:48.237Z,0
2022-08-11T02:51:48.239Z,0
2022-08-11T02:52:47.961Z,0
2022-08-11T02:54:00.514Z,0
2022-08-11T02:54:48.207Z,0
2022-08-11T02:56:03.664Z,0
2022-08-11T02:56:48.437Z,0
2022-08-11T02:57:48.173Z,0
2022-08-11T02:58:50.529Z,0
2022-08-11T02:59:48.418Z,0
2022-08-11T03:00:48.146Z,0
2022-08-11T03:01:48.787Z,0
2022-08-11T03:02:48.430Z,0
2022-08-11T03:03:47.611Z,0
2022-08-11T03:04:47.852Z,0
2022-08-11T03:05:50.756Z,0
2022-08-11T03:06:48.351Z,0
2022-08-11T03:07:48.072Z,0
2022-08-11T03:08:48.327Z,0
2022-08-11T03:09:48.221Z,0
2022-08-11T03:10:48.308Z,0
2022-08-11T03:11:47.783Z,0
2022-08-11T03:12:53.730Z,0
2022-08-11T03:13:48.054Z,0
2022-08-11T03:14:48.021Z,0
2022-08-11T03:15:49.183Z,0
2022-08-11T03:16:48.008Z,4
2022-08-11T03:17:48.243Z,4
2022-08-11T03:18:47.976Z,0
2022-08-11T03:19:48.223Z,0
2022-08-11T03:20:50.563Z,4
2022-08-11T03:22:10.903Z,4
2022-08-11T03:22:47.676Z,4
2022-08-11T03:23:48.188Z,4
2022-08-11T03:24:48.175Z,8
2022-08-11T03:25:47.911Z,8
2022-08-11T03:26:50.066Z,8
2022-08-11T03:27:47.894Z,8
2022-08-11T03:28:48.310Z,8
2022-08-11T03:29:48.129Z,12
2022-08-11T03:30:47.857Z,12
2022-08-11T03:31:50.803Z,16
2022-08-11T03:49:13.045Z,124
2022-08-11T03:50:11.242Z,136
2022-08-11T03:51:11.492Z,148
2022-08-11T03:52:11.206Z,164
2022-08-11T03:53:10.990Z,176
2022-08-11T03:54:11.196Z,192
2022-08-11T03:55:10.668Z,208
2022-08-11T03:56:11.163Z,228
2022-08-11T03:57:11.413Z,248
2022-08-11T03:58:11.139Z,268
2022-08-11T03:59:10.613Z,288
2022-08-11T04:00:11.409Z,308
2022-08-11T04:01:11.516Z,328
2022-08-11T04:02:11.289Z,352
2022-08-11T04:03:11.335Z,376
2022-08-11T04:04:11.603Z,400
2022-08-11T04:05:11.589Z,428
2022-08-11T04:06:11.580Z,452
2022-08-11T04:07:20.053Z,488
2022-08-11T04:08:11.549Z,508
2022-08-11T04:09:15.408Z,540
2022-08-11T04:10:11.024Z,568
2022-08-11T04:11:11.267Z,600
2022-08-11T04:12:36.187Z,632
2022-08-11T04:13:11.247Z,660
2022-08-11T04:14:11.488Z,688
2022-08-11T04:15:11.222Z,724
2022-08-11T04:16:18.817Z,756
2022-08-11T04:17:10.947Z,784
2022-08-11T04:18:11.707Z,820
2022-08-11T04:19:11.194Z,852
2022-08-11T04:20:11.687Z,884
2022-08-11T04:21:11.708Z,916
2022-08-11T04:22:11.706Z,948
2022-08-11T04:23:11.403Z,984
2022-08-11T04:24:52.674Z,1036
2022-08-11T04:26:18.702Z,1080
2022-08-11T04:26:45.701Z,1096
2022-08-11T04:27:46.024Z,1128
2022-08-11T04:28:57.640Z,1160
2022-08-11T04:30:16.799Z,1200
2022-08-11T04:30:48.442Z,1212
2022-08-11T04:31:58.501Z,1244
2022-08-11T04:32:44.702Z,1268
2022-08-11T04:33:46.366Z,1296
2022-08-11T04:34:44.515Z,1324
2022-08-11T04:35:51.083Z,1360
2022-08-11T04:36:44.490Z,1392
2022-08-11T04:37:43.963Z,1424
2022-08-11T04:38:43.954Z,1456
2022-08-11T04:39:44.866Z,1492
2022-08-11T04:40:43.681Z,1524
2022-08-11T04:41:44.183Z,1556
2022-08-11T04:42:44.649Z,1588
2022-08-11T04:44:11.147Z,1628
2022-08-11T04:44:43.906Z,1644
2022-08-11T04:45:44.142Z,1664
2022-08-11T04:46:44.400Z,1692
2022-08-11T04:48:10.904Z,1728
2022-08-11T04:48:44.343Z,1744
2022-08-11T04:49:43.856Z,1764
2022-08-11T04:51:08.973Z,1796
2022-08-11T04:51:44.098Z,1812
2022-08-11T04:52:45.987Z,1836
2022-08-11T04:53:44.074Z,1860
2022-08-11T04:54:43.809Z,1884
2022-08-11T04:55:46.214Z,1916
2022-08-11T04:56:44.049Z,1940
2022-08-11T04:57:44.033Z,1960
2022-08-11T04:58:44.301Z,1980
2022-08-11T04:59:45.225Z,1988
2022-08-11T05:00:44.016Z,2004
2022-08-11T05:01:44.971Z,2020
2022-08-11T05:02:44.195Z,2044
2022-08-11T05:03:43.470Z,2068
2022-08-11T05:04:43.720Z,2088
2022-08-11T05:05:59.920Z,2124
2022-08-11T05:06:43.956Z,2136
2022-08-11T05:07:43.990Z,2152
2022-08-11T05:08:43.677Z,2180
2022-08-11T05:09:43.928Z,2204
2022-08-11T05:10:48.332Z,2228
2022-08-11T05:11:43.907Z,2252
2022-08-11T05:12:44.612Z,2272
2022-08-11T05:13:43.938Z,2288
2022-08-11T05:14:43.890Z,2308
2022-08-11T05:15:56.073Z,2332
2022-08-11T05:16:44.129Z,2340
2022-08-11T05:17:43.852Z,2348
2022-08-11T05:18:43.592Z,2364
2022-08-11T05:19:43.835Z,2384
2022-08-11T05:20:44.087Z,2400
2022-08-11T05:21:52.667Z,2428
2022-08-11T05:22:44.476Z,2448
2022-08-11T05:23:44.054Z,2468
2022-08-11T05:24:43.791Z,2484
2022-08-11T05:26:54.416Z,2516
2022-08-11T05:28:03.712Z,2532
2022-08-11T05:29:22.128Z,2552
2022-08-11T05:30:03.391Z,2564
2022-08-11T05:31:03.628Z,2584
2022-08-11T05:32:03.112Z,2604
2022-08-11T05:33:08.643Z,2628
2022-08-11T05:34:03.355Z,2644
2022-08-11T05:35:03.351Z,2664
2022-08-11T05:36:09.568Z,2684
2022-08-11T05:37:32.373Z,2708
2022-08-11T05:38:03.825Z,2716
2022-08-11T05:39:03.308Z,2728
2022-08-11T05:40:03.622Z,2744
2022-08-11T05:41:07.257Z,2760
2022-08-11T05:42:03.812Z,2768
2022-08-11T05:43:03.269Z,2780
2022-08-11T05:44:28.299Z,2792
2022-08-11T05:45:04.103Z,2796
2022-08-11T05:46:16.201Z,2812
2022-08-11T05:47:03.503Z,2824
2022-08-11T05:48:03.753Z,2844
2022-08-11T05:49:03.504Z,2860
2022-08-11T05:50:06.115Z,2876
2022-08-11T05:51:12.487Z,2884
2022-08-11T05:52:21.109Z,2892
2022-08-11T05:53:08.875Z,2900
2022-08-11T05:54:04.663Z,2912
2022-08-11T05:55:11.838Z,2924
2022-08-11T05:56:10.125Z,2944
2022-08-11T05:57:03.669Z,2956
2022-08-11T05:58:03.411Z,2964
2022-08-11T05:59:03.888Z,2960
2022-08-11T06:00:03.661Z,2964
2022-08-11T06:01:03.382Z,2976
2022-08-11T06:02:04.008Z,2988
2022-08-11T06:03:02.870Z,2996
2022-08-11T06:04:05.278Z,3004
2022-08-11T06:05:03.367Z,3016
2022-08-11T06:06:03.351Z,3024
2022-08-11T06:07:03.344Z,3032
2022-08-11T06:08:04.108Z,3036
2022-08-11T06:09:03.987Z,3044
2022-08-11T06:10:03.321Z,3060
2022-08-11T06:11:02.798Z,3068
2022-08-11T06:12:03.564Z,3068
2022-08-11T06:13:03.670Z,3072
2022-08-11T06:14:03.947Z,3076
2022-08-11T06:15:03.071Z,3080
2022-08-11T06:16:08.917Z,3088
2022-08-11T06:17:03.020Z,3096
2022-08-11T06:18:03.265Z,3104
2022-08-11T06:19:02.996Z,3104
2022-08-11T06:20:13.034Z,3104
2022-08-11T06:21:02.734Z,3104
2022-08-11T06:22:02.996Z,3112
2022-08-11T06:23:03.236Z,3112
2022-08-11T06:24:02.963Z,3116
2022-08-11T06:25:03.224Z,3120
2022-08-11T06:26:03.619Z,3124
2022-08-11T06:27:20.294Z,3132
2022-08-11T06:28:03.192Z,3144
2022-08-11T06:29:08.050Z,3160
2022-08-11T06:30:03.535Z,3172
2022-08-11T06:31:02.922Z,3184
2022-08-11T06:32:03.161Z,3188
2022-08-11T06:33:03.412Z,3200
2022-08-11T06:34:03.149Z,3212
2022-08-11T06:35:02.899Z,3228
2022-08-11T06:36:02.883Z,3236
2022-08-11T06:37:03.385Z,3240
2022-08-11T06:38:06.560Z,3248
2022-08-11T06:39:03.124Z,3256
2022-08-11T06:40:03.569Z,3260
2022-08-11T06:41:03.104Z,3272
2022-08-11T06:42:02.851Z,3284
2022-08-11T06:43:03.355Z,3296
2022-08-11T06:44:09.174Z,3320
2022-08-11T06:45:02.825Z,3348
2022-08-11T06:46:02.819Z,3388
2022-08-11T06:47:03.329Z,3452
2022-08-11T06:48:03.122Z,4100
2022-08-11T06:49:03.053Z,8172
2022-08-11T06:50:03.699Z,5896
2022-08-11T06:51:03.045Z,7716
2022-08-11T06:52:35.409Z,17216
2022-08-11T06:53:03.291Z,21088
2022-08-11T06:54:11.647Z,28288
2022-08-11T06:55:02.767Z,30656
2022-08-11T06:56:06.221Z,30592
2022-08-11T06:57:35.048Z,32128
2022-08-11T06:58:03.264Z,32256
2022-08-11T06:59:04.372Z,31904
2022-08-11T07:00:02.990Z,31456
2022-08-11T07:01:03.027Z,32864
2022-08-11T07:02:03.293Z,32480
2022-08-11T07:03:03.033Z,32320
2022-08-11T07:04:02.992Z,34432
2022-08-11T07:05:02.986Z,33408
2022-08-11T07:06:02.716Z,33696
2022-08-11T07:07:03.236Z,33888
2022-08-11T07:08:38.559Z,32352
2022-08-11T07:09:02.714Z,32608
2022-08-11T07:10:02.735Z,34976
2022-08-11T07:11:03.238Z,36672
2022-08-11T07:12:03.042Z,36896
2022-08-11T07:13:02.973Z,36512
2022-08-11T07:14:03.215Z,37472
2022-08-11T07:15:07.640Z,38784
2022-08-11T07:16:19.147Z,39424
2022-08-11T07:17:02.963Z,38176
2022-08-11T07:18:02.458Z,37568
2022-08-11T07:19:02.976Z,37152
2022-08-11T07:20:03.586Z,37408
2022-08-11T07:22:04.360Z,37216
2022-08-11T07:22:14.942Z,36896
2022-08-11T07:23:16.639Z,35520
2022-08-11T07:24:14.954Z,38176
2022-08-11T07:25:15.196Z,40352
2022-08-11T07:26:14.956Z,42176
2022-08-11T07:27:14.695Z,42112
2022-08-11T07:28:14.959Z,39840
2022-08-11T07:29:14.709Z,37088
2022-08-11T07:30:14.971Z,32064
2022-08-11T07:31:14.960Z,19488
2022-08-11T07:32:15.221Z,7592
2022-08-11T07:34:11.068Z,5464
2022-08-11T07:34:25.460Z,5328
2022-08-11T07:35:25.891Z,4968
2022-08-11T07:36:31.576Z,4656
2022-08-11T07:37:25.904Z,4488
2022-08-11T07:38:30.168Z,4340
2022-08-11T07:39:26.125Z,4252
2022-08-11T07:40:25.922Z,4148
2022-08-11T07:41:25.663Z,4056
2022-08-11T07:42:28.392Z,4024
2022-08-11T07:43:25.933Z,3996
2022-08-11T07:44:27.287Z,3996
2022-08-11T07:45:25.944Z,3988
2022-08-11T07:46:25.704Z,3976
2022-08-11T07:47:25.717Z,3952
2022-08-11T07:48:25.445Z,3932
2022-08-11T07:49:27.850Z,3912
2022-08-11T07:50:25.968Z,3904
2022-08-11T07:51:25.708Z,3916
2022-08-11T07:52:25.206Z,4048
2022-08-11T07:53:25.729Z,4080
2022-08-11T07:54:32.159Z,3892
2022-08-11T07:55:56.731Z,3916
2022-08-11T07:57:57.753Z,4052
2022-08-11T07:58:34.081Z,4196
2022-08-11T08:00:08.210Z,4280
2022-08-11T08:00:34.359Z,4232
2022-08-11T08:01:29.983Z,4136
2022-08-11T08:02:31.418Z,3772
2022-08-11T08:03:27.305Z,3884
2022-08-11T08:04:27.565Z,4020
2022-08-11T08:05:27.572Z,3824
2022-08-11T08:06:43.168Z,3736
2022-08-11T08:07:27.318Z,3736
2022-08-11T08:08:27.964Z,3708
2022-08-11T08:09:27.577Z,3724
2022-08-11T08:10:27.583Z,3744
2022-08-11T08:11:34.174Z,3728
2022-08-11T08:12:27.607Z,3740
2022-08-11T08:13:27.074Z,3696
2022-08-11T08:14:27.608Z,3688
2022-08-11T08:15:27.588Z,3680
2022-08-11T08:16:27.337Z,3664
2022-08-11T08:17:27.339Z,3688
2022-08-11T08:18:34.473Z,3712
2022-08-11T08:19:27.351Z,3692
2022-08-11T08:20:27.149Z,3668
2022-08-11T08:21:27.088Z,3672
2022-08-11T08:22:51.351Z,3652
2022-08-11T08:23:27.859Z,3636
2022-08-11T08:24:27.859Z,3624
2022-08-11T08:25:27.861Z,3612
2022-08-11T08:26:27.349Z,3604
2022-08-11T08:27:31.055Z,3604
2022-08-11T08:28:32.878Z,3592
2022-08-11T08:29:27.614Z,3560
2022-08-11T08:30:27.618Z,3548
2022-08-11T08:31:27.366Z,3520
2022-08-11T08:32:27.366Z,3508
2022-08-11T08:33:27.616Z,3456
2022-08-11T08:34:27.977Z,3484
2022-08-11T08:35:33.332Z,3492
2022-08-11T08:36:27.617Z,3524
2022-08-11T08:37:54.433Z,3556
2022-08-11T08:38:27.631Z,3560
2022-08-11T08:39:27.813Z,3644
2022-08-11T08:40:27.764Z,3804
2022-08-11T08:41:27.870Z,3940
2022-08-11T08:42:27.982Z,3948
2022-08-11T08:43:27.378Z,3832
2022-08-11T08:44:47.592Z,3640
2022-08-11T08:45:27.870Z,3620
2022-08-11T08:46:27.629Z,3712
2022-08-11T08:47:55.531Z,3536
2022-08-11T08:48:27.357Z,3536
2022-08-11T08:49:27.104Z,3584
2022-08-11T08:50:34.571Z,3632
2022-08-11T08:52:20.271Z,3640
2022-08-11T08:52:51.810Z,3592
2022-08-11T08:54:02.775Z,3560
2022-08-11T08:54:47.004Z,3556
2022-08-11T08:55:52.386Z,3672
2022-08-11T08:56:47.252Z,3912
2022-08-11T08:57:47.936Z,4172
2022-08-11T08:58:46.998Z,4296
2022-08-11T08:59:56.606Z,4400
2022-08-11T09:00:47.533Z,4512
2022-08-11T09:01:47.636Z,4576
2022-08-11T09:02:47.380Z,4960
2022-08-11T09:04:22.702Z,5100
2022-08-11T09:04:47.001Z,5008
2022-08-11T09:05:47.277Z,5052
2022-08-11T09:06:53.977Z,5132
2022-08-11T09:07:48.390Z,5020
2022-08-11T09:08:47.265Z,4648
2022-08-11T09:09:47.258Z,4164
2022-08-11T09:10:47.521Z,3772
2022-08-11T09:11:47.511Z,3580
2022-08-11T09:12:47.583Z,3560
2022-08-11T09:13:46.993Z,3580
2022-08-11T09:14:47.515Z,3644
2022-08-11T09:15:47.043Z,3736
2022-08-11T09:16:47.009Z,3896
2022-08-11T09:17:47.800Z,4088
2022-08-11T09:18:46.997Z,4324
2022-08-11T09:20:00.343Z,4460
2022-08-11T09:20:46.755Z,4372
2022-08-11T09:21:56.754Z,3952
2022-08-11T09:22:47.326Z,3676
2022-08-11T09:24:28.617Z,3560
2022-08-11T09:24:46.995Z,3556
2022-08-11T09:25:47.017Z,3564
2022-08-11T09:26:46.995Z,3528
2022-08-11T09:27:57.194Z,3580
2022-08-11T09:28:47.265Z,3620
2022-08-11T09:29:47.000Z,3624
2022-08-11T09:30:47.252Z,3548
2022-08-11T09:31:47.603Z,3544
2022-08-11T09:32:46.998Z,3528
2022-08-11T09:33:49.656Z,3452
2022-08-11T09:34:47.059Z,3424
2022-08-11T09:35:47.000Z,3408
2022-08-11T09:36:47.261Z,3372
2022-08-11T09:38:04.071Z,3340
2022-08-11T09:38:52.218Z,3352
2022-08-11T09:39:48.689Z,3320
2022-08-11T09:41:00.721Z,3348
2022-08-11T09:42:16.449Z,3388
2022-08-11T09:42:47.803Z,3452
2022-08-11T09:43:47.815Z,3596
2022-08-11T09:44:48.654Z,3852
2022-08-11T09:45:48.064Z,4124
2022-08-11T09:46:47.809Z,4320
2022-08-11T09:47:48.324Z,4376
2022-08-11T09:48:48.061Z,4304
2022-08-11T09:49:48.065Z,4160
2022-08-11T09:50:48.063Z,4296
2022-08-11T09:52:09.856Z,4868
2022-08-11T09:53:47.179Z,5320
2022-08-11T09:54:12.595Z,5172
2022-08-11T09:55:11.829Z,4388
2022-08-11T09:56:12.084Z,3776
2022-08-11T09:57:12.339Z,3548
2022-08-11T09:58:12.088Z,3580
2022-08-11T09:59:12.086Z,3532
2022-08-11T10:00:19.890Z,3472
2022-08-11T10:01:12.726Z,3392
2022-08-11T10:02:12.347Z,3392
2022-08-11T10:03:12.362Z,3456
2022-08-11T10:04:12.095Z,3520
2022-08-11T10:05:12.355Z,3600
2022-08-11T10:06:15.662Z,3608
2022-08-11T10:07:12.092Z,3464
2022-08-11T10:08:12.350Z,3372
2022-08-11T10:09:12.095Z,3296
2022-08-11T10:10:12.090Z,3204
2022-08-11T10:11:12.351Z,3380
2022-08-11T10:12:12.350Z,3392
2022-08-11T10:14:44.973Z,3356
2022-08-11T10:14:55.988Z,3360
2022-08-11T10:16:21.715Z,3340
2022-08-11T10:16:55.988Z,3300
2022-08-11T10:17:55.482Z,3244
2022-08-11T10:18:55.986Z,3212
2022-08-11T10:20:11.956Z,3196
2022-08-11T10:20:55.779Z,3184
2022-08-11T10:21:55.742Z,3168
2022-08-11T10:22:55.489Z,3132
2022-08-11T10:24:12.165Z,3116
2022-08-11T10:24:55.478Z,3120
2022-08-11T10:25:56.011Z,3140
2022-08-11T10:26:58.239Z,3176
2022-08-11T10:29:14.980Z,3224
2022-08-11T10:29:26.546Z,3224
2022-08-11T10:30:30.016Z,3252
2022-08-11T10:31:30.523Z,3228
2022-08-11T10:32:34.754Z,3260
2022-08-11T10:34:04.370Z,3324
2022-08-11T10:34:33.838Z,3348
2022-08-11T10:35:26.213Z,3408
2022-08-11T10:36:25.950Z,3380
2022-08-11T10:38:09.977Z,3252
2022-08-11T10:38:26.907Z,3348
2022-08-11T10:39:27.172Z,3308
2022-08-11T10:40:26.671Z,3252
2022-08-11T10:41:26.136Z,3304
2022-08-11T10:43:02.661Z,3428
2022-08-11T10:44:09.874Z,3704
2022-08-11T10:44:26.906Z,3792
2022-08-11T10:45:26.921Z,4044
2022-08-11T10:46:36.595Z,3912
2022-08-11T10:47:26.659Z,3696
2022-08-11T10:48:26.653Z,3464
2022-08-11T10:49:26.929Z,3364
2022-08-11T10:50:26.928Z,3532
2022-08-11T10:52:03.173Z,3696
2022-08-11T10:52:26.663Z,3672
2022-08-11T10:53:26.662Z,3868
2022-08-11T10:54:26.917Z,3852
2022-08-11T10:55:26.750Z,3720
2022-08-11T10:56:26.664Z,3468
2022-08-11T10:57:27.754Z,3272
2022-08-11T10:58:26.920Z,3248
2022-08-11T10:59:26.681Z,3256
2022-08-11T11:00:28.006Z,3272
2022-08-11T11:01:26.521Z,3332
2022-08-11T11:02:26.429Z,3464
2022-08-11T11:03:30.556Z,3612
2022-08-11T11:04:26.684Z,3724
2022-08-11T11:05:26.424Z,3772
2022-08-11T11:06:36.043Z,3796
2022-08-11T11:07:26.954Z,3820
2022-08-11T11:08:26.683Z,3848
2022-08-11T11:09:26.692Z,3448
2022-08-11T11:10:26.689Z,3140
2022-08-11T11:11:26.683Z,3068
2022-08-11T11:12:26.701Z,2944
2022-08-11T11:13:26.704Z,3104
2022-08-11T11:14:32.545Z,3100
2022-08-11T11:15:26.706Z,2808
2022-08-11T11:16:27.016Z,3496
2022-08-11T11:17:26.951Z,3704
2022-08-11T11:18:26.714Z,3952
2022-08-11T11:19:26.694Z,4184
2022-08-11T11:20:51.209Z,4712
2022-08-11T11:21:26.715Z,4812
2022-08-11T11:22:26.684Z,4564
2022-08-11T11:23:26.689Z,3980
2022-08-11T11:24:26.441Z,3616
2022-08-11T11:25:26.441Z,3264
2022-08-11T11:26:34.249Z,2796
2022-08-11T11:27:26.695Z,2836
2022-08-11T11:28:26.948Z,2864
2022-08-11T11:29:26.444Z,2900
2022-08-11T11:30:26.949Z,3288
2022-08-11T11:31:26.696Z,3276
2022-08-11T11:32:27.195Z,3268
2022-08-11T11:33:26.698Z,3284
2022-08-11T11:34:27.007Z,3272
2022-08-11T11:35:28.316Z,3224
2022-08-11T11:36:27.243Z,3188
2022-08-11T11:37:26.948Z,3160
2022-08-11T11:38:26.438Z,3084
2022-08-11T11:39:26.900Z,3052
2022-08-11T11:40:35.453Z,3112
2022-08-11T11:41:26.710Z,3108
2022-08-11T11:42:26.966Z,3108
2022-08-11T11:43:26.443Z,3136
2022-08-11T11:44:26.713Z,3176
2022-08-11T11:45:31.005Z,3160
2022-08-11T11:46:32.793Z,3160
2022-08-11T11:47:28.893Z,2708
2022-08-11T11:48:26.703Z,3176
2022-08-11T11:49:26.449Z,3164
2022-08-11T11:50:31.883Z,3308
2022-08-11T11:51:26.449Z,3292
2022-08-11T11:52:26.470Z,3248
2022-08-11T11:53:26.452Z,3272
2022-08-11T11:54:26.968Z,3292
2022-08-11T11:55:26.958Z,3204
2022-08-11T11:56:26.708Z,3084
2022-08-11T11:57:26.462Z,3156
2022-08-11T11:58:30.481Z,3256
2022-08-11T11:59:26.968Z,3300
2022-08-11T12:00:36.094Z,3368
2022-08-11T12:01:26.637Z,3352
2022-08-11T12:02:26.982Z,3252
2022-08-11T12:03:26.714Z,3200
2022-08-11T12:04:26.969Z,3192
2022-08-11T12:05:27.488Z,3196
2022-08-11T12:06:27.044Z,3212
2022-08-11T12:07:26.979Z,3316
2022-08-11T12:08:32.432Z,3392
2022-08-11T12:09:29.360Z,3432
2022-08-11T12:10:26.727Z,3436
2022-08-11T12:11:26.747Z,3340
2022-08-11T12:12:26.473Z,3244
2022-08-11T12:13:26.728Z,3172
2022-08-11T12:14:26.469Z,3172
2022-08-11T12:16:39.088Z,3212
2022-08-11T12:16:48.331Z,3200
2022-08-11T12:17:54.722Z,3152
2022-08-11T12:18:48.330Z,3140
2022-08-11T12:19:59.665Z,3296
2022-08-11T12:20:48.852Z,3396
2022-08-11T12:22:05.445Z,3500
2022-08-11T12:22:48.339Z,3588
2022-08-11T12:23:48.350Z,3536
2022-08-11T12:24:48.501Z,3456
2022-08-11T12:25:59.576Z,3444
2022-08-11T12:27:19.300Z,3356
2022-08-11T12:27:48.815Z,3312
2022-08-11T12:28:48.350Z,3276
2022-08-11T12:29:57.961Z,3312
2022-08-11T12:30:53.776Z,3344
2022-08-11T12:31:48.355Z,3348
2022-08-11T12:32:49.147Z,3192
2022-08-11T12:33:48.348Z,3100
2022-08-11T12:34:48.611Z,3112
2022-08-11T12:36:07.398Z,3212
2022-08-11T12:36:48.624Z,3108
2022-08-11T12:37:49.177Z,3212
2022-08-11T12:38:55.749Z,3132
2022-08-11T12:41:19.022Z,3004
2022-08-11T12:41:31.161Z,3084
2022-08-11T12:42:33.997Z,3308
2022-08-11T12:43:44.048Z,3320
2022-08-11T12:44:32.269Z,3348
2022-08-11T12:45:30.536Z,3204
2022-08-11T12:46:30.543Z,3160
2022-08-11T12:47:30.801Z,3192
2022-08-11T12:49:07.709Z,3344
2022-08-11T12:49:30.287Z,3328
2022-08-11T12:50:30.959Z,3180
2022-08-11T12:51:30.661Z,3420
2022-08-11T12:52:30.814Z,3432
2022-08-11T12:53:30.716Z,3532
2022-08-11T12:54:30.550Z,3632
2022-08-11T12:55:30.291Z,3632
2022-08-11T12:56:30.550Z,3516
2022-08-11T12:57:43.674Z,3436
2022-08-11T12:58:30.828Z,3532
2022-08-11T12:59:30.549Z,3476
2022-08-11T13:00:30.597Z,3432
2022-08-11T13:01:31.192Z,3280
2022-08-11T13:02:46.350Z,3444
2022-08-11T13:03:30.306Z,3476
2022-08-11T13:04:30.307Z,3440
2022-08-11T13:05:31.929Z,3456
2022-08-11T13:06:30.560Z,3408
2022-08-11T13:07:53.413Z,3404
2022-08-11T13:08:30.351Z,3372
2022-08-11T13:09:30.559Z,3336
2022-08-11T13:10:30.631Z,3344
2022-08-11T13:12:01.822Z,3348
2022-08-11T13:12:30.586Z,3352
2022-08-11T13:14:03.600Z,3384
2022-08-11T13:14:30.583Z,3388
2022-08-11T13:15:30.572Z,3416
2022-08-11T13:16:30.593Z,3392
2022-08-11T13:17:51.021Z,3384
2022-08-11T13:18:30.578Z,3388
2022-08-11T13:19:30.111Z,3356
2022-08-11T13:20:30.323Z,3240
2022-08-11T13:21:30.582Z,3132
2022-08-11T13:22:30.327Z,2968
2022-08-11T13:23:30.838Z,2936
2022-08-11T13:24:30.328Z,3000
2022-08-11T13:25:30.838Z,3088
2022-08-11T13:26:54.630Z,3104
2022-08-11T13:27:30.834Z,3088
2022-08-11T13:28:30.850Z,3112
2022-08-11T13:29:30.338Z,3080
2022-08-11T13:30:31.786Z,3028
2022-08-11T13:31:30.353Z,3024
2022-08-11T13:32:30.702Z,3048
2022-08-11T13:33:31.049Z,2988
2022-08-11T13:34:30.348Z,2948
2022-08-11T13:35:30.845Z,3068
2022-08-11T13:36:30.334Z,2944
2022-08-11T13:38:27.411Z,2908
2022-08-11T13:39:38.626Z,2936
2022-08-11T13:41:01.393Z,2860
2022-08-11T13:41:38.062Z,2772
2022-08-11T13:42:38.317Z,2868
2022-08-11T13:43:38.327Z,2820
2022-08-11T13:44:38.357Z,2828
2022-08-11T13:45:38.839Z,2808
2022-08-11T13:46:39.601Z,2808
2022-08-11T13:47:47.983Z,2764
2022-08-11T13:48:38.581Z,2752
2022-08-11T13:49:42.080Z,2736
2022-08-11T13:50:38.588Z,2760
2022-08-11T13:51:41.218Z,2796
2022-08-11T13:52:38.329Z,2804
2022-08-11T13:53:38.608Z,2884
2022-08-11T13:54:38.930Z,3048
2022-08-11T13:55:58.295Z,3100
2022-08-11T13:56:38.590Z,3120
2022-08-11T13:58:45.980Z,3268
2022-08-11T13:59:04.470Z,3300
2022-08-11T14:00:05.926Z,3416
2022-08-11T14:02:28.921Z,3588
2022-08-11T14:02:40.984Z,3652
2022-08-11T14:04:37.989Z,3716
2022-08-11T14:05:54.769Z,3664
2022-08-11T14:06:48.016Z,3620
2022-08-11T14:07:48.550Z,3468
2022-08-11T14:08:54.071Z,3188